sensor_id;sensor_type;location;lat;lon;timestamp;P1;durP1;ratioP1;P2;durP2;ratioP2
6836;SDS011;3456;42.136;24.736;2023-06-26T00:00:42;13.57;;;6.67;;
6836;SDS011;3456;42.136;24.736;2023-06-26T00:03:15;15.57;;;7.10;;
6836;SDS011;3456;42.136;24.736;2023-06-26T00:05:44;12.40;;;7.17;;
6836;SDS011;3456;42.136;24.736;2023-06-26T00:08:21;11.87;;;6.90;;
6836;SDS011;3456;42.136;24.736;2023-06-26T00:10:50;11.37;;;6.87;;
6836;SDS011;3456;42.136;24.736;2023-06-26T00:13:19;11.37;;;6.87;;
6836;SDS011;3456;42.136;24.736;2023-06-26T00:15:48;11.67;;;7.03;;
6836;SDS011;3456;42.136;24.736;2023-06-26T00:18:19;13.00;;;7.70;;
6836;SDS011;3456;42.136;24.736;2023-06-26T00:20:48;10.90;;;7.43;;
6836;SDS011;3456;42.136;24.736;2023-06-26T00:23:17;16.77;;;7.70;;
6836;SDS011;3456;42.136;24.736;2023-06-26T00:25:47;15.03;;;8.10;;
6836;SDS011;3456;42.136;24.736;2023-06-26T00:28:17;11.33;;;7.10;;
6836;SDS011;3456;42.136;24.736;2023-06-26T00:30:46;12.93;;;7.60;;
6836;SDS011;3456;42.136;24.736;2023-06-26T00:33:15;10.63;;;7.07;;
6836;SDS011;3456;42.136;24.736;2023-06-26T00:35:46;10.33;;;6.70;;
6836;SDS011;3456;42.136;24.736;2023-06-26T00:38:16;13.03;;;7.03;;
6836;SDS011;3456;42.136;24.736;2023-06-26T00:40:45;12.10;;;6.77;;
6836;SDS011;3456;42.136;24.736;2023-06-26T00:43:13;13.17;;;6.80;;
6836;SDS011;3456;42.136;24.736;2023-06-26T00:45:42;11.93;;;6.87;;
6836;SDS011;3456;42.136;24.736;2023-06-26T00:48:11;16.27;;;6.77;;
6836;SDS011;3456;42.136;24.736;2023-06-26T00:50:40;12.50;;;7.57;;
6836;SDS011;3456;42.136;24.736;2023-06-26T00:53:13;16.00;;;7.37;;
6836;SDS011;3456;42.136;24.736;2023-06-26T00:55:42;12.17;;;7.37;;
6836;SDS011;3456;42.136;24.736;2023-06-26T00:58:10;12.07;;;7.27;;
6836;SDS011;3456;42.136;24.736;2023-06-26T01:00:39;15.43;;;7.57;;
6836;SDS011;3456;42.136;24.736;2023-06-26T01:03:10;16.70;;;8.47;;
6836;SDS011;3456;42.136;24.736;2023-06-26T01:05:47;12.23;;;7.60;;
6836;SDS011;3456;42.136;24.736;2023-06-26T01:08:20;13.87;;;7.77;;
6836;SDS011;3456;42.136;24.736;2023-06-26T01:10:51;16.83;;;8.43;;
6836;SDS011;3456;42.136;24.736;2023-06-26T01:13:19;14.07;;;8.00;;
6836;SDS011;3456;42.136;24.736;2023-06-26T01:15:49;16.67;;;8.03;;
6836;SDS011;3456;42.136;24.736;2023-06-26T01:18:18;16.23;;;8.40;;
6836;SDS011;3456;42.136;24.736;2023-06-26T01:20:47;14.17;;;8.37;;
6836;SDS011;3456;42.136;24.736;2023-06-26T01:23:17;13.50;;;8.40;;
6836;SDS011;3456;42.136;24.736;2023-06-26T01:25:58;14.10;;;8.30;;
6836;SDS011;3456;42.136;24.736;2023-06-26T01:28:46;15.30;;;8.80;;
6836;SDS011;3456;42.136;24.736;2023-06-26T01:31:16;15.90;;;8.93;;
6836;SDS011;3456;42.136;24.736;2023-06-26T01:33:47;16.63;;;8.90;;
6836;SDS011;3456;42.136;24.736;2023-06-26T01:36:17;13.97;;;8.60;;
6836;SDS011;3456;42.136;24.736;2023-06-26T01:38:47;15.27;;;9.03;;
6836;SDS011;3456;42.136;24.736;2023-06-26T01:41:18;14.07;;;8.13;;
6836;SDS011;3456;42.136;24.736;2023-06-26T01:43:55;15.77;;;8.73;;
6836;SDS011;3456;42.136;24.736;2023-06-26T01:46:36;18.53;;;9.53;;
6836;SDS011;3456;42.136;24.736;2023-06-26T01:49:09;20.27;;;9.33;;
6836;SDS011;3456;42.136;24.736;2023-06-26T01:51:45;20.03;;;9.63;;
6836;SDS011;3456;42.136;24.736;2023-06-26T01:54:20;17.10;;;9.20;;
6836;SDS011;3456;42.136;24.736;2023-06-26T01:56:55;15.70;;;9.70;;
6836;SDS011;3456;42.136;24.736;2023-06-26T01:59:25;14.40;;;9.63;;
6836;SDS011;3456;42.136;24.736;2023-06-26T02:01:58;15.87;;;10.30;;
6836;SDS011;3456;42.136;24.736;2023-06-26T02:04:33;17.60;;;9.53;;
6836;SDS011;3456;42.136;24.736;2023-06-26T02:07:04;16.63;;;10.27;;
6836;SDS011;3456;42.136;24.736;2023-06-26T02:09:34;17.47;;;10.17;;
6836;SDS011;3456;42.136;24.736;2023-06-26T02:12:06;17.93;;;9.90;;
6836;SDS011;3456;42.136;24.736;2023-06-26T02:14:39;15.40;;;9.73;;
6836;SDS011;3456;42.136;24.736;2023-06-26T02:17:10;16.73;;;10.00;;
6836;SDS011;3456;42.136;24.736;2023-06-26T02:19:39;16.60;;;10.77;;
6836;SDS011;3456;42.136;24.736;2023-06-26T02:22:12;19.03;;;10.67;;
6836;SDS011;3456;42.136;24.736;2023-06-26T02:24:43;16.13;;;10.37;;
6836;SDS011;3456;42.136;24.736;2023-06-26T02:27:15;19.87;;;10.50;;
6836;SDS011;3456;42.136;24.736;2023-06-26T02:29:44;20.80;;;11.13;;
6836;SDS011;3456;42.136;24.736;2023-06-26T02:32:12;19.53;;;10.63;;
6836;SDS011;3456;42.136;24.736;2023-06-26T02:34:41;20.13;;;11.67;;
6836;SDS011;3456;42.136;24.736;2023-06-26T02:37:10;22.33;;;11.63;;
6836;SDS011;3456;42.136;24.736;2023-06-26T02:39:39;24.97;;;11.17;;
6836;SDS011;3456;42.136;24.736;2023-06-26T02:42:07;18.37;;;10.27;;
6836;SDS011;3456;42.136;24.736;2023-06-26T02:44:39;22.60;;;11.27;;
6836;SDS011;3456;42.136;24.736;2023-06-26T02:47:08;21.77;;;11.57;;
6836;SDS011;3456;42.136;24.736;2023-06-26T02:49:36;22.07;;;11.53;;
6836;SDS011;3456;42.136;24.736;2023-06-26T02:52:06;21.13;;;11.60;;
6836;SDS011;3456;42.136;24.736;2023-06-26T02:54:34;17.47;;;11.60;;
6836;SDS011;3456;42.136;24.736;2023-06-26T02:57:05;20.70;;;11.80;;
6836;SDS011;3456;42.136;24.736;2023-06-26T02:59:33;18.83;;;11.33;;
6836;SDS011;3456;42.136;24.736;2023-06-26T03:02:07;16.17;;;10.57;;
6836;SDS011;3456;42.136;24.736;2023-06-26T03:04:36;15.73;;;11.37;;
6836;SDS011;3456;42.136;24.736;2023-06-26T03:07:05;21.10;;;11.93;;
6836;SDS011;3456;42.136;24.736;2023-06-26T03:09:34;19.60;;;11.83;;
6836;SDS011;3456;42.136;24.736;2023-06-26T03:12:05;16.00;;;10.93;;
6836;SDS011;3456;42.136;24.736;2023-06-26T03:14:34;20.03;;;11.70;;
6836;SDS011;3456;42.136;24.736;2023-06-26T03:17:03;18.80;;;11.37;;
6836;SDS011;3456;42.136;24.736;2023-06-26T03:19:35;20.37;;;11.03;;
6836;SDS011;3456;42.136;24.736;2023-06-26T03:22:06;14.83;;;10.63;;
6836;SDS011;3456;42.136;24.736;2023-06-26T03:24:35;18.20;;;11.40;;
6836;SDS011;3456;42.136;24.736;2023-06-26T03:27:04;18.67;;;11.80;;
6836;SDS011;3456;42.136;24.736;2023-06-26T03:29:35;19.80;;;11.67;;
6836;SDS011;3456;42.136;24.736;2023-06-26T03:34:37;22.67;;;12.50;;
6836;SDS011;3456;42.136;24.736;2023-06-26T03:39:36;21.20;;;12.47;;
6836;SDS011;3456;42.136;24.736;2023-06-26T03:42:08;21.40;;;11.93;;
6836;SDS011;3456;42.136;24.736;2023-06-26T03:52:28;17.27;;;11.50;;
6836;SDS011;3456;42.136;24.736;2023-06-26T03:57:27;19.97;;;11.77;;
6836;SDS011;3456;42.136;24.736;2023-06-26T03:59:56;21.50;;;12.00;;
6836;SDS011;3456;42.136;24.736;2023-06-26T04:02:25;21.17;;;12.13;;
6836;SDS011;3456;42.136;24.736;2023-06-26T04:07:23;21.17;;;11.63;;
6836;SDS011;3456;42.136;24.736;2023-06-26T04:09:56;19.13;;;11.77;;
6836;SDS011;3456;42.136;24.736;2023-06-26T04:12:25;18.40;;;11.90;;
6836;SDS011;3456;42.136;24.736;2023-06-26T04:14:55;20.90;;;11.50;;
6836;SDS011;3456;42.136;24.736;2023-06-26T04:17:24;21.90;;;12.50;;
6836;SDS011;3456;42.136;24.736;2023-06-26T04:19:55;25.33;;;12.27;;
6836;SDS011;3456;42.136;24.736;2023-06-26T04:24:56;17.00;;;11.40;;
6836;SDS011;3456;42.136;24.736;2023-06-26T04:27:25;19.55;;;11.68;;
6836;SDS011;3456;42.136;24.736;2023-06-26T04:29:58;18.50;;;11.80;;
6836;SDS011;3456;42.136;24.736;2023-06-26T04:32:27;20.35;;;11.80;;
6836;SDS011;3456;42.136;24.736;2023-06-26T04:34:55;19.80;;;11.68;;
6836;SDS011;3456;42.136;24.736;2023-06-26T04:42:26;22.63;;;12.55;;
6836;SDS011;3456;42.136;24.736;2023-06-26T04:44:55;20.00;;;12.10;;
6836;SDS011;3456;42.136;24.736;2023-06-26T04:47:23;16.15;;;11.40;;
6836;SDS011;3456;42.136;24.736;2023-06-26T04:49:52;19.25;;;11.80;;
6836;SDS011;3456;42.136;24.736;2023-06-26T04:52:21;21.23;;;11.68;;
6836;SDS011;3456;42.136;24.736;2023-06-26T04:54:50;18.02;;;11.70;;
6836;SDS011;3456;42.136;24.736;2023-06-26T05:02:32;18.50;;;11.50;;
6836;SDS011;3456;42.136;24.736;2023-06-26T05:05:00;15.93;;;11.50;;
6836;SDS011;3456;42.136;24.736;2023-06-26T05:07:30;23.00;;;11.45;;
6836;SDS011;3456;42.136;24.736;2023-06-26T05:09:59;14.75;;;11.23;;
6836;SDS011;3456;42.136;24.736;2023-06-26T05:12:27;18.13;;;10.73;;
6836;SDS011;3456;42.136;24.736;2023-06-26T05:14:56;19.13;;;11.55;;
6836;SDS011;3456;42.136;24.736;2023-06-26T05:17:25;15.10;;;11.32;;
6836;SDS011;3456;42.136;24.736;2023-06-26T05:19:57;21.42;;;11.63;;
6836;SDS011;3456;42.136;24.736;2023-06-26T05:22:25;15.35;;;10.45;;
6836;SDS011;3456;42.136;24.736;2023-06-26T05:24:55;16.55;;;11.07;;
6836;SDS011;3456;42.136;24.736;2023-06-26T05:27:28;14.05;;;10.00;;
6836;SDS011;3456;42.136;24.736;2023-06-26T05:32:30;16.38;;;9.35;;
6836;SDS011;3456;42.136;24.736;2023-06-26T05:35:18;18.30;;;10.57;;
6836;SDS011;3456;42.136;24.736;2023-06-26T05:44:01;14.43;;;9.60;;
6836;SDS011;3456;42.136;24.736;2023-06-26T05:46:50;15.20;;;10.63;;
6836;SDS011;3456;42.136;24.736;2023-06-26T05:49:28;16.42;;;9.30;;
6836;SDS011;3456;42.136;24.736;2023-06-26T05:52:05;16.15;;;9.18;;
6836;SDS011;3456;42.136;24.736;2023-06-26T05:54:35;21.20;;;9.50;;
6836;SDS011;3456;42.136;24.736;2023-06-26T05:57:07;14.35;;;8.93;;
6836;SDS011;3456;42.136;24.736;2023-06-26T05:59:39;23.88;;;8.90;;
6836;SDS011;3456;42.136;24.736;2023-06-26T06:02:13;18.23;;;9.32;;
6836;SDS011;3456;42.136;24.736;2023-06-26T06:04:46;14.85;;;8.95;;
6836;SDS011;3456;42.136;24.736;2023-06-26T06:07:19;16.52;;;9.20;;
6836;SDS011;3456;42.136;24.736;2023-06-26T06:09:48;11.63;;;9.00;;
6836;SDS011;3456;42.136;24.736;2023-06-26T06:12:19;14.02;;;8.95;;
6836;SDS011;3456;42.136;24.736;2023-06-26T06:14:47;13.45;;;8.98;;
6836;SDS011;3456;42.136;24.736;2023-06-26T06:22:13;13.98;;;8.93;;
6836;SDS011;3456;42.136;24.736;2023-06-26T06:24:48;13.07;;;8.63;;
6836;SDS011;3456;42.136;24.736;2023-06-26T06:27:17;13.55;;;8.90;;
6836;SDS011;3456;42.136;24.736;2023-06-26T06:29:48;17.40;;;8.38;;
6836;SDS011;3456;42.136;24.736;2023-06-26T06:32:17;12.50;;;8.60;;
6836;SDS011;3456;42.136;24.736;2023-06-26T06:34:47;11.32;;;8.68;;
6836;SDS011;3456;42.136;24.736;2023-06-26T06:37:20;20.08;;;8.70;;
6836;SDS011;3456;42.136;24.736;2023-06-26T06:40:04;18.30;;;9.18;;
6836;SDS011;3456;42.136;24.736;2023-06-26T06:42:34;11.55;;;8.40;;
6836;SDS011;3456;42.136;24.736;2023-06-26T06:45:03;18.92;;;9.10;;
6836;SDS011;3456;42.136;24.736;2023-06-26T06:47:32;14.65;;;8.80;;
6836;SDS011;3456;42.136;24.736;2023-06-26T06:50:02;12.10;;;8.15;;
6836;SDS011;3456;42.136;24.736;2023-06-26T06:52:34;13.82;;;8.70;;
6836;SDS011;3456;42.136;24.736;2023-06-26T06:57:42;17.00;;;8.20;;
6836;SDS011;3456;42.136;24.736;2023-06-26T07:00:11;13.55;;;8.05;;
6836;SDS011;3456;42.136;24.736;2023-06-26T07:02:43;12.35;;;7.50;;
6836;SDS011;3456;42.136;24.736;2023-06-26T07:05:12;15.57;;;7.28;;
6836;SDS011;3456;42.136;24.736;2023-06-26T07:07:43;11.15;;;6.63;;
6836;SDS011;3456;42.136;24.736;2023-06-26T07:10:13;16.75;;;7.15;;
6836;SDS011;3456;42.136;24.736;2023-06-26T07:12:45;20.38;;;7.05;;
6836;SDS011;3456;42.136;24.736;2023-06-26T07:15:16;10.88;;;6.53;;
6836;SDS011;3456;42.136;24.736;2023-06-26T07:17:54;12.48;;;6.57;;
6836;SDS011;3456;42.136;24.736;2023-06-26T07:20:24;10.38;;;7.03;;
6836;SDS011;3456;42.136;24.736;2023-06-26T07:22:59;12.40;;;6.63;;
6836;SDS011;3456;42.136;24.736;2023-06-26T07:25:40;7.88;;;6.43;;
6836;SDS011;3456;42.136;24.736;2023-06-26T07:28:17;7.70;;;6.45;;
6836;SDS011;3456;42.136;24.736;2023-06-26T07:30:46;8.95;;;6.40;;
6836;SDS011;3456;42.136;24.736;2023-06-26T07:36:02;10.98;;;6.85;;
6836;SDS011;3456;42.136;24.736;2023-06-26T07:38:32;9.48;;;6.10;;
6836;SDS011;3456;42.136;24.736;2023-06-26T07:41:01;9.65;;;6.00;;
6836;SDS011;3456;42.136;24.736;2023-06-26T07:43:33;8.73;;;5.50;;
6836;SDS011;3456;42.136;24.736;2023-06-26T07:46:05;11.88;;;6.35;;
6836;SDS011;3456;42.136;24.736;2023-06-26T07:48:36;12.88;;;5.32;;
6836;SDS011;3456;42.136;24.736;2023-06-26T07:51:09;11.40;;;6.20;;
6836;SDS011;3456;42.136;24.736;2023-06-26T07:53:37;9.93;;;5.95;;
6836;SDS011;3456;42.136;24.736;2023-06-26T07:56:08;11.25;;;6.20;;
6836;SDS011;3456;42.136;24.736;2023-06-26T07:58:43;7.63;;;5.13;;
6836;SDS011;3456;42.136;24.736;2023-06-26T08:01:15;8.60;;;5.07;;
6836;SDS011;3456;42.136;24.736;2023-06-26T08:03:49;8.43;;;5.30;;
6836;SDS011;3456;42.136;24.736;2023-06-26T08:06:21;7.68;;;4.90;;
6836;SDS011;3456;42.136;24.736;2023-06-26T08:08:52;6.55;;;5.30;;
6836;SDS011;3456;42.136;24.736;2023-06-26T08:16:18;8.65;;;6.05;;
6836;SDS011;3456;42.136;24.736;2023-06-26T08:18:50;8.60;;;5.90;;
6836;SDS011;3456;42.136;24.736;2023-06-26T08:21:27;10.38;;;6.95;;
6836;SDS011;3456;42.136;24.736;2023-06-26T08:23:57;10.07;;;6.53;;
6836;SDS011;3456;42.136;24.736;2023-06-26T08:26:30;12.00;;;6.70;;
6836;SDS011;3456;42.136;24.736;2023-06-26T08:29:11;15.85;;;7.20;;
6836;SDS011;3456;42.136;24.736;2023-06-26T08:31:51;9.70;;;6.93;;
6836;SDS011;3456;42.136;24.736;2023-06-26T08:34:24;8.43;;;6.82;;
6836;SDS011;3456;42.136;24.736;2023-06-26T08:39:26;10.45;;;7.93;;
6836;SDS011;3456;42.136;24.736;2023-06-26T08:41:55;14.25;;;7.78;;
6836;SDS011;3456;42.136;24.736;2023-06-26T08:44:42;9.88;;;8.27;;
6836;SDS011;3456;42.136;24.736;2023-06-26T08:47:16;13.23;;;8.35;;
6836;SDS011;3456;42.136;24.736;2023-06-26T08:49:47;11.93;;;7.22;;
6836;SDS011;3456;42.136;24.736;2023-06-26T08:52:23;15.55;;;7.53;;
6836;SDS011;3456;42.136;24.736;2023-06-26T08:54:59;10.02;;;7.68;;
6836;SDS011;3456;42.136;24.736;2023-06-26T08:57:36;11.20;;;7.35;;
6836;SDS011;3456;42.136;24.736;2023-06-26T09:00:06;14.60;;;8.00;;
6836;SDS011;3456;42.136;24.736;2023-06-26T09:02:39;10.68;;;7.60;;
6836;SDS011;3456;42.136;24.736;2023-06-26T09:05:09;15.88;;;8.18;;
6836;SDS011;3456;42.136;24.736;2023-06-26T09:07:42;12.45;;;7.50;;
6836;SDS011;3456;42.136;24.736;2023-06-26T09:10:15;11.27;;;7.43;;
6836;SDS011;3456;42.136;24.736;2023-06-26T09:12:51;11.52;;;7.25;;
6836;SDS011;3456;42.136;24.736;2023-06-26T09:15:23;12.60;;;7.28;;
6836;SDS011;3456;42.136;24.736;2023-06-26T09:17:56;10.25;;;6.70;;
6836;SDS011;3456;42.136;24.736;2023-06-26T09:20:27;10.30;;;7.25;;
6836;SDS011;3456;42.136;24.736;2023-06-26T09:22:58;11.15;;;6.85;;
6836;SDS011;3456;42.136;24.736;2023-06-26T09:25:29;12.85;;;6.60;;
6836;SDS011;3456;42.136;24.736;2023-06-26T09:27:58;15.98;;;6.55;;
6836;SDS011;3456;42.136;24.736;2023-06-26T09:30:27;11.18;;;6.85;;
6836;SDS011;3456;42.136;24.736;2023-06-26T09:32:58;12.07;;;6.70;;
6836;SDS011;3456;42.136;24.736;2023-06-26T09:35:42;7.53;;;5.55;;
6836;SDS011;3456;42.136;24.736;2023-06-26T09:38:11;10.10;;;6.32;;
6836;SDS011;3456;42.136;24.736;2023-06-26T09:40:41;14.00;;;7.28;;
6836;SDS011;3456;42.136;24.736;2023-06-26T09:43:12;11.27;;;6.70;;
6836;SDS011;3456;42.136;24.736;2023-06-26T09:45:41;14.68;;;7.35;;
6836;SDS011;3456;42.136;24.736;2023-06-26T09:48:15;9.20;;;6.60;;
6836;SDS011;3456;42.136;24.736;2023-06-26T09:50:45;10.95;;;7.28;;
6836;SDS011;3456;42.136;24.736;2023-06-26T09:53:15;6.35;;;5.10;;
6836;SDS011;3456;42.136;24.736;2023-06-26T09:55:44;9.30;;;5.88;;
6836;SDS011;3456;42.136;24.736;2023-06-26T09:58:13;9.17;;;6.00;;
6836;SDS011;3456;42.136;24.736;2023-06-26T10:00:42;12.60;;;6.40;;
6836;SDS011;3456;42.136;24.736;2023-06-26T10:03:12;11.70;;;6.20;;
6836;SDS011;3456;42.136;24.736;2023-06-26T10:05:43;10.47;;;5.17;;
6836;SDS011;3456;42.136;24.736;2023-06-26T10:08:13;9.40;;;5.73;;
6836;SDS011;3456;42.136;24.736;2023-06-26T10:10:43;14.10;;;6.73;;
6836;SDS011;3456;42.136;24.736;2023-06-26T10:13:15;11.67;;;6.93;;
6836;SDS011;3456;42.136;24.736;2023-06-26T10:15:50;10.20;;;6.40;;
6836;SDS011;3456;42.136;24.736;2023-06-26T10:18:22;9.13;;;6.40;;
6836;SDS011;3456;42.136;24.736;2023-06-26T10:20:54;11.35;;;7.38;;
6836;SDS011;3456;42.136;24.736;2023-06-26T10:23:25;8.45;;;6.82;;
6836;SDS011;3456;42.136;24.736;2023-06-26T10:25:57;9.48;;;6.82;;
6836;SDS011;3456;42.136;24.736;2023-06-26T10:28:27;8.38;;;5.97;;
6836;SDS011;3456;42.136;24.736;2023-06-26T10:31:00;7.28;;;5.72;;
6836;SDS011;3456;42.136;24.736;2023-06-26T10:33:34;9.50;;;5.85;;
6836;SDS011;3456;42.136;24.736;2023-06-26T10:36:14;9.18;;;5.78;;
6836;SDS011;3456;42.136;24.736;2023-06-26T10:38:48;8.18;;;5.30;;
6836;SDS011;3456;42.136;24.736;2023-06-26T10:41:19;10.30;;;6.78;;
6836;SDS011;3456;42.136;24.736;2023-06-26T10:43:49;9.07;;;6.38;;
6836;SDS011;3456;42.136;24.736;2023-06-26T10:49:00;7.28;;;5.63;;
6836;SDS011;3456;42.136;24.736;2023-06-26T10:51:29;6.50;;;5.22;;
6836;SDS011;3456;42.136;24.736;2023-06-26T10:54:00;5.93;;;4.80;;
6836;SDS011;3456;42.136;24.736;2023-06-26T10:56:45;8.27;;;5.30;;
6836;SDS011;3456;42.136;24.736;2023-06-26T10:59:16;11.15;;;5.10;;
6836;SDS011;3456;42.136;24.736;2023-06-26T11:01:46;7.72;;;5.18;;
6836;SDS011;3456;42.136;24.736;2023-06-26T11:07:18;8.63;;;4.85;;
6836;SDS011;3456;42.136;24.736;2023-06-26T11:09:54;7.30;;;5.38;;
6836;SDS011;3456;42.136;24.736;2023-06-26T11:12:59;9.18;;;4.60;;
6836;SDS011;3456;42.136;24.736;2023-06-26T11:15:47;6.53;;;4.63;;
6836;SDS011;3456;42.136;24.736;2023-06-26T11:18:27;6.60;;;4.22;;
6836;SDS011;3456;42.136;24.736;2023-06-26T11:21:14;6.38;;;4.43;;
6836;SDS011;3456;42.136;24.736;2023-06-26T11:23:44;6.97;;;4.40;;
6836;SDS011;3456;42.136;24.736;2023-06-26T11:26:16;7.65;;;5.38;;
6836;SDS011;3456;42.136;24.736;2023-06-26T11:28:50;9.45;;;6.05;;
6836;SDS011;3456;42.136;24.736;2023-06-26T11:31:26;10.45;;;6.38;;
6836;SDS011;3456;42.136;24.736;2023-06-26T11:33:57;6.38;;;5.72;;
6836;SDS011;3456;42.136;24.736;2023-06-26T11:36:33;11.50;;;6.93;;
6836;SDS011;3456;42.136;24.736;2023-06-26T11:39:03;10.52;;;6.45;;
6836;SDS011;3456;42.136;24.736;2023-06-26T11:41:35;10.60;;;6.97;;
6836;SDS011;3456;42.136;24.736;2023-06-26T11:44:05;16.90;;;7.13;;
6836;SDS011;3456;42.136;24.736;2023-06-26T11:46:37;15.52;;;8.30;;
6836;SDS011;3456;42.136;24.736;2023-06-26T11:49:07;19.10;;;8.45;;
6836;SDS011;3456;42.136;24.736;2023-06-26T11:51:39;16.55;;;7.90;;
6836;SDS011;3456;42.136;24.736;2023-06-26T11:54:09;13.57;;;7.70;;
6836;SDS011;3456;42.136;24.736;2023-06-26T11:56:39;12.27;;;8.30;;
6836;SDS011;3456;42.136;24.736;2023-06-26T11:59:11;13.18;;;8.55;;
6836;SDS011;3456;42.136;24.736;2023-06-26T12:01:41;29.08;;;11.38;;
6836;SDS011;3456;42.136;24.736;2023-06-26T12:04:22;17.15;;;11.25;;
6836;SDS011;3456;42.136;24.736;2023-06-26T12:07:08;13.85;;;7.82;;
6836;SDS011;3456;42.136;24.736;2023-06-26T12:14:47;14.75;;;7.65;;
6836;SDS011;3456;42.136;24.736;2023-06-26T12:17:22;10.10;;;6.72;;
6836;SDS011;3456;42.136;24.736;2023-06-26T12:20:00;12.10;;;7.20;;
6836;SDS011;3456;42.136;24.736;2023-06-26T12:22:43;9.57;;;6.65;;
6836;SDS011;3456;42.136;24.736;2023-06-26T12:40:52;11.00;;;7.10;;
6836;SDS011;3456;42.136;24.736;2023-06-26T12:43:37;9.50;;;5.43;;
6836;SDS011;3456;42.136;24.736;2023-06-26T12:46:39;11.60;;;6.80;;
6836;SDS011;3456;42.136;24.736;2023-06-26T12:49:11;11.15;;;6.28;;
6836;SDS011;3456;42.136;24.736;2023-06-26T12:52:02;13.38;;;6.07;;
6836;SDS011;3456;42.136;24.736;2023-06-26T12:54:39;9.93;;;6.32;;
6836;SDS011;3456;42.136;24.736;2023-06-26T12:57:16;9.68;;;6.00;;
6836;SDS011;3456;42.136;24.736;2023-06-26T12:59:46;12.98;;;5.63;;
6836;SDS011;3456;42.136;24.736;2023-06-26T13:02:20;8.82;;;5.85;;
6836;SDS011;3456;42.136;24.736;2023-06-26T13:05:01;12.40;;;6.32;;
6836;SDS011;3456;42.136;24.736;2023-06-26T13:07:45;9.48;;;5.95;;
6836;SDS011;3456;42.136;24.736;2023-06-26T13:10:19;8.07;;;5.50;;
6836;SDS011;3456;42.136;24.736;2023-06-26T13:12:57;8.52;;;4.95;;
6836;SDS011;3456;42.136;24.736;2023-06-26T13:15:36;7.45;;;5.05;;
6836;SDS011;3456;42.136;24.736;2023-06-26T13:18:11;8.80;;;5.55;;
6836;SDS011;3456;42.136;24.736;2023-06-26T13:20:40;9.90;;;5.90;;
6836;SDS011;3456;42.136;24.736;2023-06-26T13:23:09;11.32;;;6.43;;
6836;SDS011;3456;42.136;24.736;2023-06-26T13:25:40;13.88;;;6.47;;
6836;SDS011;3456;42.136;24.736;2023-06-26T13:28:11;20.98;;;5.85;;
6836;SDS011;3456;42.136;24.736;2023-06-26T13:30:42;11.45;;;7.47;;
6836;SDS011;3456;42.136;24.736;2023-06-26T13:33:16;8.93;;;6.00;;
6836;SDS011;3456;42.136;24.736;2023-06-26T13:35:47;10.10;;;5.00;;
6836;SDS011;3456;42.136;24.736;2023-06-26T13:38:18;6.57;;;4.78;;
6836;SDS011;3456;42.136;24.736;2023-06-26T13:40:51;7.63;;;4.30;;
6836;SDS011;3456;42.136;24.736;2023-06-26T13:43:31;9.10;;;4.85;;
6836;SDS011;3456;42.136;24.736;2023-06-26T13:46:06;7.70;;;3.90;;
6836;SDS011;3456;42.136;24.736;2023-06-26T13:48:35;6.32;;;4.22;;
6836;SDS011;3456;42.136;24.736;2023-06-26T13:51:04;5.85;;;4.07;;
6836;SDS011;3456;42.136;24.736;2023-06-26T13:53:50;9.32;;;4.53;;
6836;SDS011;3456;42.136;24.736;2023-06-26T13:56:20;6.32;;;4.55;;
6836;SDS011;3456;42.136;24.736;2023-06-26T13:58:53;8.80;;;4.50;;
6836;SDS011;3456;42.136;24.736;2023-06-26T14:01:23;8.27;;;5.07;;
6836;SDS011;3456;42.136;24.736;2023-06-26T14:03:53;8.25;;;5.18;;
6836;SDS011;3456;42.136;24.736;2023-06-26T14:06:22;7.45;;;4.80;;
6836;SDS011;3456;42.136;24.736;2023-06-26T14:08:51;10.35;;;4.13;;
6836;SDS011;3456;42.136;24.736;2023-06-26T14:11:22;9.13;;;4.07;;
6836;SDS011;3456;42.136;24.736;2023-06-26T14:13:54;12.00;;;4.00;;
6836;SDS011;3456;42.136;24.736;2023-06-26T14:16:24;11.15;;;4.18;;
6836;SDS011;3456;42.136;24.736;2023-06-26T14:18:54;7.07;;;4.18;;
6836;SDS011;3456;42.136;24.736;2023-06-26T14:21:22;6.33;;;3.87;;
6836;SDS011;3456;42.136;24.736;2023-06-26T14:23:52;8.43;;;3.90;;
6836;SDS011;3456;42.136;24.736;2023-06-26T14:26:21;8.40;;;3.85;;
6836;SDS011;3456;42.136;24.736;2023-06-26T14:28:50;4.47;;;3.42;;
6836;SDS011;3456;42.136;24.736;2023-06-26T14:31:21;6.78;;;3.88;;
6836;SDS011;3456;42.136;24.736;2023-06-26T14:33:50;4.03;;;3.15;;
6836;SDS011;3456;42.136;24.736;2023-06-26T14:36:19;5.03;;;3.22;;
6836;SDS011;3456;42.136;24.736;2023-06-26T14:38:48;5.63;;;3.55;;
6836;SDS011;3456;42.136;24.736;2023-06-26T14:41:22;6.57;;;3.72;;
6836;SDS011;3456;42.136;24.736;2023-06-26T14:43:51;7.32;;;4.07;;
6836;SDS011;3456;42.136;24.736;2023-06-26T14:46:24;9.60;;;3.85;;
6836;SDS011;3456;42.136;24.736;2023-06-26T14:48:53;5.78;;;3.47;;
6836;SDS011;3456;42.136;24.736;2023-06-26T14:51:31;8.05;;;3.70;;
6836;SDS011;3456;42.136;24.736;2023-06-26T14:54:09;6.18;;;3.92;;
6836;SDS011;3456;42.136;24.736;2023-06-26T14:56:40;4.72;;;3.28;;
6836;SDS011;3456;42.136;24.736;2023-06-26T14:59:11;5.03;;;3.40;;
6836;SDS011;3456;42.136;24.736;2023-06-26T15:01:43;7.18;;;3.53;;
6836;SDS011;3456;42.136;24.736;2023-06-26T15:04:12;10.93;;;4.18;;
6836;SDS011;3456;42.136;24.736;2023-06-26T15:06:42;7.47;;;3.70;;
6836;SDS011;3456;42.136;24.736;2023-06-26T15:09:12;6.68;;;4.00;;
6836;SDS011;3456;42.136;24.736;2023-06-26T15:11:45;7.55;;;3.75;;
6836;SDS011;3456;42.136;24.736;2023-06-26T15:14:13;12.70;;;3.85;;
6836;SDS011;3456;42.136;24.736;2023-06-26T15:16:47;8.88;;;3.70;;
6836;SDS011;3456;42.136;24.736;2023-06-26T15:19:19;6.30;;;3.63;;
6836;SDS011;3456;42.136;24.736;2023-06-26T15:21:53;7.45;;;4.00;;
6836;SDS011;3456;42.136;24.736;2023-06-26T15:24:22;5.53;;;3.55;;
6836;SDS011;3456;42.136;24.736;2023-06-26T15:26:51;6.68;;;4.05;;
6836;SDS011;3456;42.136;24.736;2023-06-26T15:29:22;8.63;;;3.63;;
6836;SDS011;3456;42.136;24.736;2023-06-26T15:31:57;5.88;;;3.78;;
6836;SDS011;3456;42.136;24.736;2023-06-26T15:34:26;4.97;;;3.35;;
6836;SDS011;3456;42.136;24.736;2023-06-26T15:36:55;6.38;;;4.05;;
6836;SDS011;3456;42.136;24.736;2023-06-26T15:39:25;7.70;;;4.25;;
6836;SDS011;3456;42.136;24.736;2023-06-26T15:41:54;5.80;;;4.20;;
6836;SDS011;3456;42.136;24.736;2023-06-26T15:44:24;5.80;;;3.75;;
6836;SDS011;3456;42.136;24.736;2023-06-26T15:46:56;6.30;;;4.10;;
6836;SDS011;3456;42.136;24.736;2023-06-26T15:49:25;6.47;;;3.70;;
6836;SDS011;3456;42.136;24.736;2023-06-26T15:51:55;5.22;;;4.18;;
6836;SDS011;3456;42.136;24.736;2023-06-26T15:54:24;5.03;;;3.58;;
6836;SDS011;3456;42.136;24.736;2023-06-26T15:56:54;5.22;;;3.70;;
6836;SDS011;3456;42.136;24.736;2023-06-26T15:59:22;5.70;;;3.95;;
6836;SDS011;3456;42.136;24.736;2023-06-26T16:01:54;6.68;;;3.85;;
6836;SDS011;3456;42.136;24.736;2023-06-26T16:04:26;5.68;;;3.75;;
6836;SDS011;3456;42.136;24.736;2023-06-26T16:06:57;7.22;;;4.20;;
6836;SDS011;3456;42.136;24.736;2023-06-26T16:09:26;6.60;;;3.80;;
6836;SDS011;3456;42.136;24.736;2023-06-26T16:11:55;6.43;;;3.80;;
6836;SDS011;3456;42.136;24.736;2023-06-26T16:14:23;23.60;;;4.55;;
6836;SDS011;3456;42.136;24.736;2023-06-26T16:16:53;11.98;;;4.47;;
6836;SDS011;3456;42.136;24.736;2023-06-26T16:19:27;11.25;;;4.43;;
6836;SDS011;3456;42.136;24.736;2023-06-26T16:21:55;14.05;;;4.00;;
6836;SDS011;3456;42.136;24.736;2023-06-26T16:24:24;8.63;;;4.43;;
6836;SDS011;3456;42.136;24.736;2023-06-26T16:26:54;6.72;;;4.40;;
6836;SDS011;3456;42.136;24.736;2023-06-26T16:29:23;14.23;;;5.10;;
6836;SDS011;3456;42.136;24.736;2023-06-26T16:31:53;11.38;;;4.75;;
6836;SDS011;3456;42.136;24.736;2023-06-26T16:34:37;8.80;;;4.82;;
6836;SDS011;3456;42.136;24.736;2023-06-26T16:37:06;9.05;;;4.50;;
6836;SDS011;3456;42.136;24.736;2023-06-26T16:39:48;9.45;;;4.63;;
6836;SDS011;3456;42.136;24.736;2023-06-26T16:42:17;16.08;;;10.35;;